Taiseimaru — JL6483 — position and weather

sailwx.info

Track history (hours):
 
Tides and Currents Weather Stations Pressure Air Temp Water Temp Dewpoint Dewpoint Depression Visibility Wind Speed Wind Dir Waves Ship Positions

Taiseimaru

Last reported at 2017-Feb-19 00:07 UTC. Time now 2017-Feb-21 23:28 UTC.
Position N 34°01' E 134°60'.

Length 84 m; draft 4.7 m.

Type: Cargo ship. MMSI: 431500568.

Date/timePositionNaut miles runAvg speedWind from/ knotsBaromVisibWave heightAir tempDewpointWater temp
2017-Feb-19 00:07N 34°01' E 134°60'712.0
2017-Feb-18 23:33N 34°07' E 135°04'5 5.3
2017-Feb-18 22:31N 34°10' E 135°09'0 0.0
2017-Feb-18 21:31N 34°10' E 135°09'0 0.0
2017-Feb-18 20:31N 34°10' E 135°09'0 0.0
2017-Feb-18 19:31N 34°10' E 135°09'0 0.0
2017-Feb-18 18:31N 34°10' E 135°09'0 0.0
2017-Feb-18 17:31N 34°10' E 135°09'0 0.1
2017-Feb-18 16:31N 34°10' E 135°09'0 0.1
2017-Feb-18 15:31N 34°10' E 135°09'0 0.0
2017-Feb-18 14:31N 34°10' E 135°09'0 0.1
2017-Feb-18 13:31N 34°10' E 135°09'0 0.0
2017-Feb-18 12:22N 34°10' E 135°09'0 0.0
2017-Feb-18 11:31N 34°10' E 135°09'0 0.1
2017-Feb-18 10:31N 34°10' E 135°09'0 0.0
2017-Feb-18 09:31N 34°10' E 135°09'0 0.1
2017-Feb-18 08:31N 34°10' E 135°09'0 0.0
2017-Feb-18 07:28N 34°10' E 135°09'0 0.0
2017-Feb-18 06:31N 34°10' E 135°09'0 0.0
2017-Feb-18 05:31N 34°10' E 135°09'0 0.0
2017-Feb-18 04:28N 34°10' E 135°09'0 0.0
2017-Feb-18 03:31N 34°10' E 135°09'0 0.0
2017-Feb-18 02:31N 34°10' E 135°09'0 0.0
2017-Feb-18 01:34N 34°10' E 135°09'0 0.0
2017-Feb-18 00:30N 34°10' E 135°09'0 0.0
2017-Feb-17 23:33N 34°10' E 135°09'0 0.0
2017-Feb-17 22:30N 34°10' E 135°09'0 0.0
2017-Feb-17 21:30N 34°10' E 135°09'0 0.0
2017-Feb-17 20:33N 34°10' E 135°09'0 0.0
2017-Feb-17 19:33N 34°10' E 135°09'0 0.0
2017-Feb-17 18:30N 34°10' E 135°09'0 0.0
2017-Feb-17 17:33N 34°10' E 135°09'0 0.0
2017-Feb-17 16:33N 34°10' E 135°09'0 0.0
2017-Feb-17 15:33N 34°10' E 135°09'0 0.0
2017-Feb-17 14:33N 34°10' E 135°09'0 0.0
2017-Feb-17 13:30N 34°10' E 135°09'0 0.1
2017-Feb-17 12:33N 34°10' E 135°09'0 0.0
2017-Feb-17 11:33N 34°10' E 135°09'0 0.0
2017-Feb-17 10:33N 34°10' E 135°09'0 0.0
2017-Feb-17 09:33N 34°10' E 135°09'0 0.0
2017-Feb-17 08:30N 34°10' E 135°09'0 0.0
2017-Feb-17 07:33N 34°10' E 135°09'0 0.0
2017-Feb-17 06:33N 34°10' E 135°09'0 0.0
2017-Feb-17 05:33N 34°10' E 135°09'0 0.0
2017-Feb-17 04:33N 34°10' E 135°09'0 0.0
2017-Feb-17 03:33N 34°10' E 135°09'0 0.0
2017-Feb-17 02:30N 34°10' E 135°09'0 0.0
2017-Feb-17 01:33N 34°10' E 135°09'0 0.0
2017-Feb-17 00:33N 34°10' E 135°09'0 0.0
2017-Feb-16 23:33N 34°10' E 135°09'0 0.1
2017-Feb-16 22:33N 34°10' E 135°09'0 0.0
2017-Feb-16 21:33N 34°10' E 135°09'0 0.1
2017-Feb-16 20:30N 34°10' E 135°09'0 0.1
2017-Feb-16 19:33N 34°10' E 135°09'5 5.5
2017-Feb-16 18:34N 34°14' E 135°05'2 2.0
2017-Feb-16 17:32N 34°14' E 135°08'0 0.0
2017-Feb-16 16:32N 34°14' E 135°08'0 0.0
2017-Feb-16 15:32N 34°14' E 135°08'0 0.0
2017-Feb-16 14:32N 34°14' E 135°08'0 0.0
2017-Feb-16 13:32N 34°14' E 135°08'0 0.0
2017-Feb-16 12:32N 34°14' E 135°08'0 0.2
2017-Feb-16 11:33N 34°14' E 135°08'8 8.2
2017-Feb-16 10:33N 34°08' E 135°01'6 0.1
2017-Feb-14 16:08N 34°02' E 134°57'712.0
2017-Feb-14 15:33N 34°08' E 135°01'8 7.6
2017-Feb-14 14:33N 34°14' E 135°08'0 0.0
2017-Feb-14 13:28N 34°14' E 135°08'0 0.1
2017-Feb-14 12:31N 34°14' E 135°08'0 0.0
2017-Feb-14 11:31N 34°14' E 135°08'0 0.0
2017-Feb-14 10:28N 34°14' E 135°08'0 0.0
2017-Feb-14 09:31N 34°14' E 135°08'0 0.0
2017-Feb-14 08:31N 34°14' E 135°08'0 0.0
2017-Feb-14 07:31N 34°14' E 135°08'0 0.0
2017-Feb-14 06:31N 34°14' E 135°08'0 0.0
2017-Feb-14 05:31N 34°14' E 135°08'0 0.0
2017-Feb-14 04:31N 34°14' E 135°08'0 0.0
2017-Feb-14 03:31N 34°14' E 135°08'0 0.0
2017-Feb-14 02:31N 34°14' E 135°08'0 0.1
2017-Feb-14 01:33N 34°14' E 135°08'0 0.0
2017-Feb-14 00:34N 34°14' E 135°08'0 0.0
2017-Feb-13 23:33N 34°14' E 135°08'0 0.0
2017-Feb-13 22:33N 34°14' E 135°08'2 1.9
2017-Feb-13 21:33N 34°15' E 135°06'0 0.0
2017-Feb-13 20:33N 34°15' E 135°06'0 0.0
2017-Feb-13 19:33N 34°15' E 135°06'0 0.0
2017-Feb-13 18:33N 34°15' E 135°06'0 0.0
2017-Feb-13 17:33N 34°15' E 135°06'0 0.0
2017-Feb-13 16:33N 34°15' E 135°06'0 0.0
2017-Feb-13 15:33N 34°15' E 135°06'0 0.0
2017-Feb-13 14:31N 34°15' E 135°06'8 8.4
2017-Feb-13 13:33N 34°08' E 135°00'6 0.2
2017-Feb-12 10:27N 34°02' E 134°58'1011.7
2017-Feb-12 09:33N 34°12' E 135°04'4 3.9
2017-Feb-12 08:31N 34°14' E 135°08'0 0.0
2017-Feb-12 07:31N 34°14' E 135°08'0 0.0
2017-Feb-12 06:31N 34°14' E 135°08'0 0.0
2017-Feb-12 05:31N 34°14' E 135°08'0 0.0
2017-Feb-12 04:31N 34°14' E 135°08'0 0.0
2017-Feb-12 03:31N 34°14' E 135°08'0 0.0
2017-Feb-12 02:31N 34°14' E 135°08'0 0.0
2017-Feb-12 01:31N 34°14' E 135°08'0 0.0
2017-Feb-12 00:31N 34°14' E 135°08'0 0.0
2017-Feb-11 23:31N 34°14' E 135°08'0 0.0
2017-Feb-11 22:34N 34°14' E 135°08'3 2.8
2017-Feb-11 21:33N 34°15' E 135°05'0 0.1
2017-Feb-11 20:11N 34°15' E 135°05'0 0.0
2017-Feb-11 19:32N 34°15' E 135°05'0 0.0
2017-Feb-11 18:29N 34°15' E 135°05'3 3.8
2017-Feb-11 17:34N 34°12' E 135°04'15 0.6
2017-Feb-10 16:31N 33°58' E 134°57'1111.8
2017-Feb-10 15:33N 34°08' E 135°04'5 4.8
2017-Feb-10 14:33N 34°10' E 135°09'0 0.0
2017-Feb-10 13:33N 34°10' E 135°09'0 0.0
2017-Feb-10 12:33N 34°10' E 135°09'0 0.0
2017-Feb-10 11:33N 34°10' E 135°09'0 0.0
2017-Feb-10 10:33N 34°10' E 135°09'0 0.0
2017-Feb-10 09:33N 34°10' E 135°09'0 0.0
2017-Feb-10 08:33N 34°10' E 135°09'0 0.0
2017-Feb-10 07:33N 34°10' E 135°09'0 0.0
2017-Feb-10 06:33N 34°10' E 135°09'0 0.0
2017-Feb-10 05:33N 34°10' E 135°09'0 0.0
2017-Feb-10 04:33N 34°10' E 135°09'0 0.0
2017-Feb-10 03:33N 34°10' E 135°09'0 0.0
2017-Feb-10 02:33N 34°10' E 135°09'0 0.0
2017-Feb-10 01:33N 34°10' E 135°09'0 0.0
2017-Feb-10 00:33N 34°10' E 135°09'0 0.0
2017-Feb-09 23:33N 34°10' E 135°09'0 0.0
2017-Feb-09 22:33N 34°10' E 135°09'3 2.8
2017-Feb-09 21:33N 34°12' E 135°07'2 1.5
2017-Feb-09 20:29N 34°14' E 135°08'0 0.0
2017-Feb-09 19:32N 34°14' E 135°08'0 0.0
2017-Feb-09 18:32N 34°14' E 135°08'0 0.0
2017-Feb-09 17:32N 34°14' E 135°08'0 0.0
2017-Feb-09 16:32N 34°14' E 135°08'0 0.0
2017-Feb-09 15:32N 34°14' E 135°08'1 1.0
2017-Feb-09 14:33N 34°14' E 135°07'10 9.9
2017-Feb-09 13:33N 34°05' E 135°01'  
Track history (hours):
 
Tides and Currents Weather Stations Pressure Air Temp Water Temp Dewpoint Dewpoint Depression Visibility Wind Speed Wind Dir Waves Ship Positions

Taiseimaru

Last reported at 2017-Feb-19 00:07 UTC. Time now 2017-Feb-21 23:28 UTC.
Position N 34°01' E 134°60'.

Length 84 m; draft 4.7 m.

Type: Cargo ship. MMSI: 431500568.

Date/timePositionNaut miles runAvg speedWind from/ knotsBaromVisibWave heightAir tempDewpointWater temp
2017-Feb-19 00:07N 34°01' E 134°60'712.0
2017-Feb-18 23:33N 34°07' E 135°04'5 5.3
2017-Feb-18 22:31N 34°10' E 135°09'0 0.0
2017-Feb-18 21:31N 34°10' E 135°09'0 0.0
2017-Feb-18 20:31N 34°10' E 135°09'0 0.0
2017-Feb-18 19:31N 34°10' E 135°09'0 0.0
2017-Feb-18 18:31N 34°10' E 135°09'0 0.0
2017-Feb-18 17:31N 34°10' E 135°09'0 0.1
2017-Feb-18 16:31N 34°10' E 135°09'0 0.1
2017-Feb-18 15:31N 34°10' E 135°09'0 0.0
2017-Feb-18 14:31N 34°10' E 135°09'0 0.1
2017-Feb-18 13:31N 34°10' E 135°09'0 0.0
2017-Feb-18 12:22N 34°10' E 135°09'0 0.0
2017-Feb-18 11:31N 34°10' E 135°09'0 0.1
2017-Feb-18 10:31N 34°10' E 135°09'0 0.0
2017-Feb-18 09:31N 34°10' E 135°09'0 0.1
2017-Feb-18 08:31N 34°10' E 135°09'0 0.0
2017-Feb-18 07:28N 34°10' E 135°09'0 0.0
2017-Feb-18 06:31N 34°10' E 135°09'0 0.0
2017-Feb-18 05:31N 34°10' E 135°09'0 0.0
2017-Feb-18 04:28N 34°10' E 135°09'0 0.0
2017-Feb-18 03:31N 34°10' E 135°09'0 0.0
2017-Feb-18 02:31N 34°10' E 135°09'0 0.0
2017-Feb-18 01:34N 34°10' E 135°09'0 0.0
2017-Feb-18 00:30N 34°10' E 135°09'0 0.0
2017-Feb-17 23:33N 34°10' E 135°09'0 0.0
2017-Feb-17 22:30N 34°10' E 135°09'0 0.0
2017-Feb-17 21:30N 34°10' E 135°09'0 0.0
2017-Feb-17 20:33N 34°10' E 135°09'0 0.0
2017-Feb-17 19:33N 34°10' E 135°09'0 0.0
2017-Feb-17 18:30N 34°10' E 135°09'0 0.0
2017-Feb-17 17:33N 34°10' E 135°09'0 0.0
2017-Feb-17 16:33N 34°10' E 135°09'0 0.0
2017-Feb-17 15:33N 34°10' E 135°09'0 0.0
2017-Feb-17 14:33N 34°10' E 135°09'0 0.0
2017-Feb-17 13:30N 34°10' E 135°09'0 0.1
2017-Feb-17 12:33N 34°10' E 135°09'0 0.0
2017-Feb-17 11:33N 34°10' E 135°09'0 0.0
2017-Feb-17 10:33N 34°10' E 135°09'0 0.0
2017-Feb-17 09:33N 34°10' E 135°09'0 0.0
2017-Feb-17 08:30N 34°10' E 135°09'0 0.0
2017-Feb-17 07:33N 34°10' E 135°09'0 0.0
2017-Feb-17 06:33N 34°10' E 135°09'0 0.0
2017-Feb-17 05:33N 34°10' E 135°09'0 0.0
2017-Feb-17 04:33N 34°10' E 135°09'0 0.0
2017-Feb-17 03:33N 34°10' E 135°09'0 0.0
2017-Feb-17 02:30N 34°10' E 135°09'0 0.0
2017-Feb-17 01:33N 34°10' E 135°09'0 0.0
2017-Feb-17 00:33N 34°10' E 135°09'0 0.0
2017-Feb-16 23:33N 34°10' E 135°09'0 0.1
2017-Feb-16 22:33N 34°10' E 135°09'0 0.0
2017-Feb-16 21:33N 34°10' E 135°09'0 0.1
2017-Feb-16 20:30N 34°10' E 135°09'0 0.1
2017-Feb-16 19:33N 34°10' E 135°09'5 5.5
2017-Feb-16 18:34N 34°14' E 135°05'2 2.0
2017-Feb-16 17:32N 34°14' E 135°08'0 0.0
2017-Feb-16 16:32N 34°14' E 135°08'0 0.0
2017-Feb-16 15:32N 34°14' E 135°08'0 0.0
2017-Feb-16 14:32N 34°14' E 135°08'0 0.0
2017-Feb-16 13:32N 34°14' E 135°08'0 0.0
2017-Feb-16 12:32N 34°14' E 135°08'0 0.2
2017-Feb-16 11:33N 34°14' E 135°08'8 8.2
2017-Feb-16 10:33N 34°08' E 135°01'6 0.1
2017-Feb-14 16:08N 34°02' E 134°57'712.0
2017-Feb-14 15:33N 34°08' E 135°01'8 7.6
2017-Feb-14 14:33N 34°14' E 135°08'0 0.0
2017-Feb-14 13:28N 34°14' E 135°08'0 0.1
2017-Feb-14 12:31N 34°14' E 135°08'0 0.0
2017-Feb-14 11:31N 34°14' E 135°08'0 0.0
2017-Feb-14 10:28N 34°14' E 135°08'0 0.0
2017-Feb-14 09:31N 34°14' E 135°08'0 0.0
2017-Feb-14 08:31N 34°14' E 135°08'0 0.0
2017-Feb-14 07:31N 34°14' E 135°08'0 0.0
2017-Feb-14 06:31N 34°14' E 135°08'0 0.0
2017-Feb-14 05:31N 34°14' E 135°08'0 0.0
2017-Feb-14 04:31N 34°14' E 135°08'0 0.0
2017-Feb-14 03:31N 34°14' E 135°08'0 0.0
2017-Feb-14 02:31N 34°14' E 135°08'0 0.1
2017-Feb-14 01:33N 34°14' E 135°08'0 0.0
2017-Feb-14 00:34N 34°14' E 135°08'0 0.0
2017-Feb-13 23:33N 34°14' E 135°08'0 0.0
2017-Feb-13 22:33N 34°14' E 135°08'2 1.9
2017-Feb-13 21:33N 34°15' E 135°06'0 0.0
2017-Feb-13 20:33N 34°15' E 135°06'0 0.0
2017-Feb-13 19:33N 34°15' E 135°06'0 0.0
2017-Feb-13 18:33N 34°15' E 135°06'0 0.0
2017-Feb-13 17:33N 34°15' E 135°06'0 0.0
2017-Feb-13 16:33N 34°15' E 135°06'0 0.0
2017-Feb-13 15:33N 34°15' E 135°06'0 0.0
2017-Feb-13 14:31N 34°15' E 135°06'8 8.4
2017-Feb-13 13:33N 34°08' E 135°00'6 0.2
2017-Feb-12 10:27N 34°02' E 134°58'1011.7
2017-Feb-12 09:33N 34°12' E 135°04'4 3.9
2017-Feb-12 08:31N 34°14' E 135°08'0 0.0
2017-Feb-12 07:31N 34°14' E 135°08'0 0.0
2017-Feb-12 06:31N 34°14' E 135°08'0 0.0
2017-Feb-12 05:31N 34°14' E 135°08'0 0.0
2017-Feb-12 04:31N 34°14' E 135°08'0 0.0
2017-Feb-12 03:31N 34°14' E 135°08'0 0.0
2017-Feb-12 02:31N 34°14' E 135°08'0 0.0
2017-Feb-12 01:31N 34°14' E 135°08'0 0.0
2017-Feb-12 00:31N 34°14' E 135°08'0 0.0
2017-Feb-11 23:31N 34°14' E 135°08'0 0.0
2017-Feb-11 22:34N 34°14' E 135°08'3 2.8
2017-Feb-11 21:33N 34°15' E 135°05'0 0.1
2017-Feb-11 20:11N 34°15' E 135°05'0 0.0
2017-Feb-11 19:32N 34°15' E 135°05'0 0.0
2017-Feb-11 18:29N 34°15' E 135°05'3 3.8
2017-Feb-11 17:34N 34°12' E 135°04'15 0.6
2017-Feb-10 16:31N 33°58' E 134°57'1111.8
2017-Feb-10 15:33N 34°08' E 135°04'5 4.8
2017-Feb-10 14:33N 34°10' E 135°09'0 0.0
2017-Feb-10 13:33N 34°10' E 135°09'0 0.0
2017-Feb-10 12:33N 34°10' E 135°09'0 0.0
2017-Feb-10 11:33N 34°10' E 135°09'0 0.0
2017-Feb-10 10:33N 34°10' E 135°09'0 0.0
2017-Feb-10 09:33N 34°10' E 135°09'0 0.0
2017-Feb-10 08:33N 34°10' E 135°09'0 0.0
2017-Feb-10 07:33N 34°10' E 135°09'0 0.0
2017-Feb-10 06:33N 34°10' E 135°09'0 0.0
2017-Feb-10 05:33N 34°10' E 135°09'0 0.0
2017-Feb-10 04:33N 34°10' E 135°09'0 0.0
2017-Feb-10 03:33N 34°10' E 135°09'0 0.0
2017-Feb-10 02:33N 34°10' E 135°09'0 0.0
2017-Feb-10 01:33N 34°10' E 135°09'0 0.0
2017-Feb-10 00:33N 34°10' E 135°09'0 0.0
2017-Feb-09 23:33N 34°10' E 135°09'0 0.0
2017-Feb-09 22:33N 34°10' E 135°09'3 2.8
2017-Feb-09 21:33N 34°12' E 135°07'2 1.5
2017-Feb-09 20:29N 34°14' E 135°08'0 0.0
2017-Feb-09 19:32N 34°14' E 135°08'0 0.0
2017-Feb-09 18:32N 34°14' E 135°08'0 0.0
2017-Feb-09 17:32N 34°14' E 135°08'0 0.0
2017-Feb-09 16:32N 34°14' E 135°08'0 0.0
2017-Feb-09 15:32N 34°14' E 135°08'1 1.0
2017-Feb-09 14:33N 34°14' E 135°07'10 9.9
2017-Feb-09 13:33N 34°05' E 135°01'  

Dump ship's entire track history